createdAt,value
2019-02-11T00:00:58.161Z,65.30
2019-02-11T00:03:24.380Z,65.30
2019-02-11T00:05:50.575Z,65.40
2019-02-11T00:08:16.736Z,65.10
2019-02-11T00:10:42.975Z,65.10
2019-02-11T00:13:10.750Z,65.00
2019-02-11T00:15:37.275Z,65.10
2019-02-11T00:18:03.485Z,65.00
2019-02-11T00:20:31.134Z,65.10
2019-02-11T00:22:57.365Z,65.00
2019-02-11T00:25:23.547Z,65.10
2019-02-11T00:27:50.179Z,65.10
2019-02-11T00:30:16.444Z,64.90
2019-02-11T00:32:42.721Z,65.00
2019-02-11T00:35:09.040Z,64.70
2019-02-11T00:37:35.263Z,64.80
2019-02-11T00:40:01.445Z,64.70
2019-02-11T00:42:27.828Z,64.80
2019-02-11T00:44:54.076Z,64.70
2019-02-11T00:47:20.279Z,64.90
2019-02-11T00:49:46.502Z,65.00
2019-02-11T00:52:12.787Z,65.00
2019-02-11T00:54:38.957Z,65.00
2019-02-11T00:57:05.173Z,65.00
2019-02-11T00:59:31.405Z,65.20
2019-02-11T01:01:59.727Z,65.50
2019-02-11T01:04:25.924Z,65.60
2019-02-11T01:06:52.137Z,65.60
2019-02-11T01:09:18.738Z,65.60
2019-02-11T01:11:44.994Z,65.70
2019-02-11T01:14:11.168Z,65.70
2019-02-11T01:16:37.789Z,65.80
2019-02-11T01:19:03.985Z,65.80
2019-02-11T01:21:30.240Z,66.00
2019-02-11T01:23:56.442Z,66.00
2019-02-11T01:26:22.658Z,66.20
2019-02-11T01:28:48.849Z,66.40
2019-02-11T01:31:15.632Z,66.60
2019-02-11T01:33:41.832Z,66.90
2019-02-11T01:36:08.074Z,67.00
2019-02-11T01:38:34.517Z,67.10
2019-02-11T01:41:00.802Z,67.30
2019-02-11T01:43:26.965Z,67.40
2019-02-11T01:45:53.160Z,67.50
2019-02-11T01:48:19.347Z,67.80
2019-02-11T01:50:45.555Z,68.10
2019-02-11T01:53:11.750Z,68.10
2019-02-11T01:55:37.950Z,68.30
2019-02-11T01:58:04.140Z,80.80
2019-02-11T02:00:30.355Z,74.70
2019-02-11T02:02:56.547Z,68.70
2019-02-11T02:05:22.709Z,69.00
2019-02-11T02:07:48.936Z,71.40
2019-02-11T02:10:15.104Z,70.00
2019-02-11T02:12:41.330Z,70.90
2019-02-11T02:15:11.660Z,71.80
2019-02-11T02:17:37.893Z,73.10
2019-02-11T02:20:11.312Z,77.80
2019-02-11T02:22:37.610Z,85.40
2019-02-11T02:25:06.853Z,75.60
2019-02-11T02:27:33.044Z,77.10
2019-02-11T02:29:59.292Z,78.00
2019-02-11T02:32:25.713Z,78.60
2019-02-11T02:34:51.897Z,79.10
2019-02-11T02:37:18.088Z,79.70
2019-02-11T02:39:44.276Z,80.20
2019-02-11T02:42:10.452Z,80.80
2019-02-11T02:44:36.643Z,81.20
2019-02-11T02:47:02.796Z,81.60
2019-02-11T02:49:28.987Z,81.90
2019-02-11T02:51:55.190Z,82.40
2019-02-11T02:54:21.378Z,82.70
2019-02-11T02:56:47.586Z,83.20
2019-02-11T02:59:13.744Z,83.00
2019-02-11T03:01:39.957Z,83.60
2019-02-11T03:04:06.173Z,83.70
2019-02-11T03:06:32.342Z,84.10
2019-02-11T03:08:58.638Z,84.40
2019-02-11T03:11:24.812Z,84.60
2019-02-11T03:13:51.039Z,84.80
2019-02-11T03:16:17.652Z,85.00
2019-02-11T03:18:43.851Z,85.30
2019-02-11T03:21:10.034Z,85.60
2019-02-11T03:23:36.234Z,85.80
2019-02-11T03:26:02.397Z,85.90
2019-02-11T03:28:28.611Z,86.20
2019-02-11T03:30:54.877Z,86.50
2019-02-11T03:33:21.059Z,86.60
2019-02-11T03:35:47.209Z,86.80
2019-02-11T03:38:13.375Z,87.20
2019-02-11T03:40:39.579Z,87.40
2019-02-11T03:43:05.738Z,87.50
2019-02-11T03:45:31.939Z,87.70
2019-02-11T03:47:58.144Z,87.80
2019-02-11T03:50:24.674Z,88.10
2019-02-11T03:52:50.882Z,88.30
2019-02-11T03:55:17.112Z,88.50
2019-02-11T03:57:43.325Z,88.50
2019-02-11T04:00:10.527Z,88.70
2019-02-11T04:02:36.704Z,88.90
2019-02-11T04:05:05.024Z,89.00
2019-02-11T04:07:31.277Z,89.10
2019-02-11T04:09:57.467Z,89.20
2019-02-11T04:12:23.655Z,89.20
2019-02-11T04:14:49.853Z,89.30
2019-02-11T04:17:16.123Z,89.20
2019-02-11T04:19:42.323Z,89.20
2019-02-11T04:22:08.703Z,89.30
2019-02-11T04:24:34.901Z,89.40
2019-02-11T04:27:01.090Z,89.50
2019-02-11T04:29:27.306Z,89.50
2019-02-11T04:31:53.463Z,89.70
2019-02-11T04:34:19.715Z,89.90
2019-02-11T04:36:45.863Z,90.00
2019-02-11T04:39:12.161Z,90.20
2019-02-11T04:41:38.337Z,90.30
2019-02-11T04:44:05.120Z,90.40
2019-02-11T04:46:31.275Z,90.50
2019-02-11T04:49:00.507Z,90.60
2019-02-11T04:51:26.683Z,90.70
2019-02-11T04:53:52.956Z,90.70
2019-02-11T04:56:19.133Z,90.80
2019-02-11T04:58:45.325Z,90.90
2019-02-11T05:01:11.794Z,90.90
2019-02-11T05:03:38.011Z,90.90
2019-02-11T05:06:04.169Z,90.90
2019-02-11T05:08:30.380Z,90.90
2019-02-11T05:10:56.566Z,90.90
2019-02-11T05:13:23.040Z,91.20
2019-02-11T05:15:49.240Z,90.90
2019-02-11T05:18:16.915Z,90.90
2019-02-11T05:20:44.905Z,90.90
2019-02-11T05:23:11.547Z,90.90
2019-02-11T05:25:37.750Z,91.00
2019-02-11T05:28:04.228Z,91.00
2019-02-11T05:30:30.610Z,90.90
2019-02-11T05:32:57.124Z,90.90
2019-02-11T05:35:23.631Z,90.90
2019-02-11T05:37:49.796Z,90.90
2019-02-11T05:40:16.111Z,91.00
2019-02-11T05:42:42.309Z,90.90
2019-02-11T05:45:09.120Z,90.90
2019-02-11T05:47:35.291Z,90.90
2019-02-11T05:50:03.008Z,90.90
2019-02-11T05:52:29.212Z,90.90
2019-02-11T05:54:55.407Z,90.90
2019-02-11T05:57:21.606Z,91.10
2019-02-11T05:59:48.134Z,91.00
2019-02-11T06:02:16.514Z,91.00
2019-02-11T06:04:42.863Z,91.00
2019-02-11T06:07:09.012Z,91.00
2019-02-11T06:09:35.200Z,91.00
2019-02-11T06:12:01.368Z,91.00
2019-02-11T06:14:27.549Z,91.00
2019-02-11T06:16:53.741Z,91.00
2019-02-11T06:19:19.949Z,91.00
2019-02-11T06:21:46.100Z,91.00
2019-02-11T06:24:12.318Z,91.00
2019-02-11T06:26:38.510Z,91.00
2019-02-11T06:29:04.813Z,91.30
2019-02-11T06:31:30.989Z,90.90
2019-02-11T06:33:57.193Z,91.00
2019-02-11T06:36:23.695Z,90.90
2019-02-11T06:38:49.857Z,90.90
2019-02-11T06:41:16.098Z,91.00
2019-02-11T06:43:42.275Z,90.90
2019-02-11T06:46:10.370Z,90.90
2019-02-11T06:48:39.581Z,90.90
2019-02-11T06:51:11.662Z,90.90
2019-02-11T06:53:37.924Z,91.30
2019-02-11T06:56:04.150Z,91.00
2019-02-11T06:58:31.390Z,91.00
2019-02-11T07:01:00.589Z,91.00
2019-02-11T07:03:26.744Z,91.10
2019-02-11T07:05:52.972Z,91.10
2019-02-11T07:08:19.157Z,91.20
2019-02-11T07:10:45.416Z,91.20
2019-02-11T07:13:11.583Z,91.20
2019-02-11T07:15:40.786Z,91.20
2019-02-11T07:18:06.976Z,91.20
2019-02-11T07:20:34.066Z,91.20
2019-02-11T07:23:00.247Z,91.20
2019-02-11T07:25:29.681Z,91.20
2019-02-11T07:27:56.117Z,91.20
2019-02-11T07:30:22.873Z,91.30
2019-02-11T07:32:49.072Z,91.20
2019-02-11T07:35:15.353Z,91.30
2019-02-11T07:37:41.530Z,91.20
2019-02-11T07:40:10.211Z,91.20
2019-02-11T07:42:44.008Z,91.20
2019-02-11T07:45:12.227Z,91.20
2019-02-11T07:47:38.409Z,91.20
2019-02-11T07:50:05.404Z,91.30
2019-02-11T07:52:31.577Z,91.30
2019-02-11T07:54:59.759Z,91.30
2019-02-11T07:57:25.995Z,91.50
2019-02-11T07:59:52.654Z,91.50
2019-02-11T08:02:19.038Z,91.60
2019-02-11T08:04:45.303Z,91.60
2019-02-11T08:07:11.839Z,91.60
2019-02-11T08:09:38.130Z,91.70
2019-02-11T08:12:05.631Z,91.80
2019-02-11T08:14:35.917Z,91.90
2019-02-11T08:17:02.126Z,92.00
2019-02-11T08:19:28.651Z,92.00
2019-02-11T08:21:55.046Z,92.00
2019-02-11T08:24:21.521Z,91.90
2019-02-11T08:26:47.706Z,91.70
2019-02-11T08:29:13.896Z,91.90
2019-02-11T08:31:40.074Z,91.50
2019-02-11T08:34:06.267Z,91.30
2019-02-11T08:36:32.577Z,91.10
2019-02-11T08:38:58.997Z,90.80
2019-02-11T08:41:25.169Z,90.60
2019-02-11T08:43:51.383Z,90.50
2019-02-11T08:46:17.557Z,90.40
2019-02-11T08:48:43.729Z,90.30
2019-02-11T08:51:11.597Z,90.30
2019-02-11T08:53:37.763Z,90.30
2019-02-11T08:56:03.956Z,90.30
2019-02-11T08:58:30.123Z,90.40
2019-02-11T09:00:56.318Z,90.40
2019-02-11T09:03:22.506Z,90.50
2019-02-11T09:05:48.827Z,90.40
2019-02-11T09:08:14.982Z,90.40
2019-02-11T09:10:41.181Z,90.40
2019-02-11T09:13:07.354Z,90.40
2019-02-11T09:15:33.722Z,90.20
2019-02-11T09:17:59.886Z,90.20
2019-02-11T09:20:26.353Z,90.10
2019-02-11T09:22:52.511Z,90.10
2019-02-11T09:25:18.767Z,90.30
2019-02-11T09:27:44.936Z,90.30
2019-02-11T09:30:14.956Z,90.40
2019-02-11T09:32:41.122Z,90.40
2019-02-11T09:35:07.419Z,90.20
2019-02-11T09:37:33.604Z,90.10
2019-02-11T09:39:59.800Z,89.80
2019-02-11T09:42:25.954Z,89.30
2019-02-11T09:44:52.128Z,89.20
2019-02-11T09:47:18.552Z,89.20
2019-02-11T09:49:53.018Z,89.20
2019-02-11T09:52:19.177Z,89.10
2019-02-11T09:54:45.720Z,89.00
2019-02-11T09:57:11.945Z,89.10
2019-02-11T09:59:38.119Z,89.10
2019-02-11T10:02:06.018Z,89.70
2019-02-11T10:04:32.249Z,89.10
2019-02-11T10:06:58.734Z,88.80
2019-02-11T10:09:24.933Z,88.50
2019-02-11T10:11:51.131Z,88.30
2019-02-11T10:14:17.324Z,88.20
2019-02-11T10:16:43.499Z,88.00
2019-02-11T10:19:09.659Z,88.00
2019-02-11T10:21:35.860Z,87.70
2019-02-11T10:24:02.137Z,87.60
2019-02-11T10:26:28.344Z,87.70
2019-02-11T10:28:54.513Z,87.60
2019-02-11T10:31:20.703Z,87.70
2019-02-11T10:33:46.981Z,87.70
2019-02-11T10:36:14.369Z,87.30
2019-02-11T10:38:40.551Z,86.80
2019-02-11T10:41:08.640Z,86.40
2019-02-11T10:43:34.848Z,86.30
2019-02-11T10:46:01.053Z,85.70
2019-02-11T10:48:27.219Z,85.10
2019-02-11T10:50:53.746Z,84.30
2019-02-11T10:53:20.176Z,83.90
2019-02-11T10:55:46.404Z,83.90
2019-02-11T10:58:12.682Z,84.10
2019-02-11T11:00:39.066Z,84.10
2019-02-11T11:03:05.368Z,84.00
2019-02-11T11:05:31.543Z,83.90
2019-02-11T11:07:57.704Z,84.10
2019-02-11T11:10:38.408Z,84.40
2019-02-11T11:13:04.572Z,84.40
2019-02-11T11:15:30.754Z,84.00
2019-02-11T11:17:57.319Z,83.30
2019-02-11T11:20:24.247Z,83.40
2019-02-11T11:22:50.730Z,83.30
2019-02-11T11:25:17.614Z,84.10
2019-02-11T11:27:43.979Z,84.20
2019-02-11T11:30:17.229Z,83.80
2019-02-11T11:32:44.309Z,83.20
2019-02-11T11:35:12.502Z,82.70
2019-02-11T11:37:38.693Z,82.00
2019-02-11T11:40:13.242Z,81.60
2019-02-11T11:42:39.405Z,81.20
2019-02-11T11:45:10.614Z,80.40
2019-02-11T11:47:36.811Z,79.90
2019-02-11T11:50:05.394Z,80.10
2019-02-11T11:52:31.590Z,80.00
2019-02-11T11:54:57.866Z,80.10
2019-02-11T11:57:24.172Z,79.80
2019-02-11T11:59:54.776Z,80.00
2019-02-11T12:02:20.993Z,81.30
2019-02-11T12:04:47.248Z,82.80
2019-02-11T12:07:15.788Z,82.70
2019-02-11T12:09:43.899Z,82.90
2019-02-11T12:12:13.037Z,82.20
2019-02-11T12:14:38.502Z,80.00
2019-02-11T12:17:04.763Z,78.80
2019-02-11T12:19:30.945Z,77.90
2019-02-11T12:21:57.188Z,77.80
2019-02-11T12:24:23.381Z,77.70
2019-02-11T12:26:49.612Z,76.90
2019-02-11T12:29:15.782Z,76.10
2019-02-11T12:31:42.050Z,76.10
2019-02-11T12:34:08.269Z,76.30
2019-02-11T12:36:34.513Z,76.80
2019-02-11T12:39:00.654Z,77.50
2019-02-11T12:41:26.904Z,78.10
2019-02-11T12:43:53.099Z,78.20
2019-02-11T12:46:19.345Z,77.60
2019-02-11T12:48:45.525Z,77.20
2019-02-11T12:51:11.723Z,78.10
2019-02-11T12:53:37.881Z,79.80
2019-02-11T12:56:04.141Z,81.40
2019-02-11T12:58:30.832Z,82.10
2019-02-11T13:00:57.041Z,81.30
2019-02-11T13:03:23.223Z,80.10
2019-02-11T13:05:49.396Z,80.00
2019-02-11T13:08:15.626Z,80.00
2019-02-11T13:10:41.853Z,79.70
2019-02-11T13:13:08.066Z,79.90
2019-02-11T13:15:57.390Z,79.20
2019-02-11T13:18:02.624Z,78.90
2019-02-11T13:20:28.879Z,77.50
2019-02-11T13:22:55.283Z,76.50
2019-02-11T13:25:21.478Z,74.40
2019-02-11T13:27:47.756Z,72.60
2019-02-11T13:30:24.535Z,71.50
2019-02-11T13:32:50.747Z,70.70
2019-02-11T13:35:18.397Z,69.80
2019-02-11T13:37:44.792Z,69.40
2019-02-11T13:40:11.254Z,69.40
2019-02-11T13:42:37.468Z,71.50
2019-02-11T13:45:13.924Z,71.40
2019-02-11T13:47:53.471Z,71.90
2019-02-11T13:50:13.388Z,72.50
2019-02-11T13:52:39.621Z,72.40
2019-02-11T13:55:07.285Z,72.60
2019-02-11T13:57:34.667Z,72.70
2019-02-11T14:00:00.984Z,71.20
2019-02-11T14:02:27.242Z,69.90
2019-02-11T14:04:53.519Z,69.30
2019-02-11T14:07:19.999Z,69.00
2019-02-11T14:09:46.175Z,68.70
2019-02-11T14:12:13.191Z,68.50
2019-02-11T14:14:39.370Z,69.10
2019-02-11T14:17:05.563Z,70.30
2019-02-11T14:19:31.818Z,71.30
2019-02-11T14:21:58.093Z,71.80
2019-02-11T14:24:24.418Z,72.10
2019-02-11T14:26:51.896Z,72.40
2019-02-11T14:29:18.777Z,72.60
2019-02-11T14:31:45.076Z,72.90
2019-02-11T14:34:11.476Z,72.70
2019-02-11T14:36:37.744Z,72.50
2019-02-11T14:39:10.069Z,71.60
2019-02-11T14:41:36.273Z,70.50
2019-02-11T14:44:02.536Z,69.80
2019-02-11T14:46:28.728Z,69.00
2019-02-11T14:48:55.160Z,67.90
2019-02-11T14:51:21.393Z,67.20
2019-02-11T14:53:47.894Z,66.70
2019-02-11T14:56:14.447Z,66.30
2019-02-11T14:58:40.604Z,66.10
2019-02-11T15:01:06.862Z,65.90
2019-02-11T15:03:32.990Z,66.00
2019-02-11T15:05:59.231Z,66.20
2019-02-11T15:08:25.419Z,65.90
2019-02-11T15:10:51.633Z,66.20
2019-02-11T15:13:17.795Z,66.20
2019-02-11T15:15:44.038Z,67.20
2019-02-11T15:18:10.501Z,66.20
2019-02-11T15:20:36.685Z,66.20
2019-02-11T15:23:03.082Z,66.20
2019-02-11T15:25:29.259Z,66.40
2019-02-11T15:27:55.464Z,66.60
2019-02-11T15:30:21.678Z,66.90
2019-02-11T15:32:47.945Z,67.00
2019-02-11T15:35:14.217Z,67.10
2019-02-11T15:37:40.521Z,67.30
2019-02-11T15:40:11.096Z,67.50
2019-02-11T15:42:37.329Z,67.70
2019-02-11T15:45:08.418Z,67.80
2019-02-11T15:47:34.648Z,67.90
2019-02-11T15:50:00.826Z,68.20
2019-02-11T15:52:27.068Z,68.50
2019-02-11T15:54:53.254Z,68.80
2019-02-11T15:57:19.510Z,69.00
2019-02-11T15:59:45.679Z,69.30
2019-02-11T16:02:12.366Z,69.40
2019-02-11T16:04:39.081Z,69.50
2019-02-11T16:07:05.554Z,69.60
2019-02-11T16:09:31.746Z,69.70
2019-02-11T16:11:57.999Z,69.90
2019-02-11T16:14:24.567Z,69.70
2019-02-11T16:16:50.814Z,69.70
2019-02-11T16:19:16.982Z,69.50
2019-02-11T16:21:43.196Z,70.30
2019-02-11T16:24:09.570Z,69.50
2019-02-11T16:26:35.943Z,69.20
2019-02-11T16:29:02.104Z,69.20
2019-02-11T16:31:28.339Z,69.10
2019-02-11T16:33:54.792Z,69.20
2019-02-11T16:36:21.087Z,69.50
2019-02-11T16:38:47.267Z,69.70
2019-02-11T16:41:13.451Z,69.90
2019-02-11T16:43:39.681Z,70.30
2019-02-11T16:46:07.279Z,70.60
2019-02-11T16:48:33.605Z,69.90
2019-02-11T16:50:59.763Z,70.20
2019-02-11T16:53:26.029Z,70.20
2019-02-11T16:55:52.192Z,70.20
2019-02-11T16:58:18.426Z,70.30
2019-02-11T17:00:44.630Z,70.50
2019-02-11T17:03:10.874Z,70.70
2019-02-11T17:05:37.059Z,70.70
2019-02-11T17:08:03.619Z,70.80
2019-02-11T17:10:29.780Z,70.90
2019-02-11T17:12:55.999Z,71.00
2019-02-11T17:15:22.243Z,71.20
2019-02-11T17:17:48.931Z,71.20
2019-02-11T17:20:15.554Z,71.40
2019-02-11T17:22:42.281Z,71.70
2019-02-11T17:25:09.899Z,71.80
2019-02-11T17:27:37.556Z,71.90
2019-02-11T17:30:16.919Z,72.10
2019-02-11T17:32:43.136Z,72.50
2019-02-11T17:35:09.797Z,72.80
2019-02-11T17:37:36.029Z,73.00
2019-02-11T17:40:11.923Z,73.10
2019-02-11T17:42:38.866Z,73.20
2019-02-11T17:45:24.360Z,73.30
2019-02-11T17:47:50.614Z,73.40
2019-02-11T17:50:16.766Z,73.50
2019-02-11T17:52:43.222Z,73.70
2019-02-11T17:55:12.567Z,73.80
2019-02-11T17:57:45.337Z,74.00
2019-02-11T18:00:52.084Z,74.20
2019-02-11T18:03:19.522Z,74.40
2019-02-11T18:05:45.636Z,74.30
2019-02-11T18:08:11.990Z,74.40
2019-02-11T18:10:38.162Z,74.50
2019-02-11T18:13:04.401Z,74.50
2019-02-11T18:15:30.588Z,74.50
2019-02-11T18:17:56.936Z,74.50
2019-02-11T18:20:23.106Z,74.70
2019-02-11T18:22:49.310Z,74.90
2019-02-11T18:25:16.223Z,75.10
2019-02-11T18:27:42.978Z,75.20
2019-02-11T18:30:14.197Z,75.40
2019-02-11T18:32:40.464Z,75.40
2019-02-11T18:35:19.791Z,75.20
2019-02-11T18:37:45.979Z,75.10
2019-02-11T18:40:13.901Z,75.00
2019-02-11T18:42:40.199Z,74.90
2019-02-11T18:45:12.734Z,74.80
2019-02-11T18:47:39.252Z,74.80
2019-02-11T18:50:14.727Z,74.90
2019-02-11T18:52:41.140Z,75.00
2019-02-11T18:55:11.615Z,75.00
2019-02-11T18:57:38.226Z,75.20
2019-02-11T19:00:11.415Z,75.10
2019-02-11T19:02:38.125Z,75.30
2019-02-11T19:05:04.925Z,75.30
2019-02-11T19:07:31.142Z,75.40
2019-02-11T19:09:57.395Z,75.40
2019-02-11T19:12:25.672Z,75.40
2019-02-11T19:14:52.120Z,75.50
2019-02-11T19:17:18.604Z,75.50
2019-02-11T19:19:44.874Z,75.50
2019-02-11T19:22:12.017Z,75.50
2019-02-11T19:24:38.564Z,75.60
2019-02-11T19:27:07.602Z,75.60
2019-02-11T19:29:33.840Z,75.70
2019-02-11T19:32:00.094Z,75.70
2019-02-11T19:34:26.297Z,75.70
2019-02-11T19:36:53.330Z,75.70
2019-02-11T19:39:19.523Z,75.80
2019-02-11T19:41:49.571Z,75.80
2019-02-11T19:44:15.770Z,75.70
2019-02-11T19:46:42.028Z,75.70
2019-02-11T19:49:08.211Z,75.70
2019-02-11T19:51:34.721Z,75.60
2019-02-11T19:54:00.961Z,75.70
2019-02-11T19:56:27.360Z,75.70
2019-02-11T19:58:53.691Z,75.60
2019-02-11T20:01:20.036Z,75.60
2019-02-11T20:03:46.263Z,75.60
2019-02-11T20:06:12.497Z,75.40
2019-02-11T20:08:38.719Z,75.50
2019-02-11T20:11:04.926Z,75.50
2019-02-11T20:13:31.819Z,75.40
2019-02-11T20:15:58.063Z,75.40
2019-02-11T20:18:24.295Z,75.40
2019-02-11T20:20:50.500Z,75.40
2019-02-11T20:23:17.124Z,75.20
2019-02-11T20:25:43.650Z,75.20
2019-02-11T20:28:09.965Z,75.10
2019-02-11T20:30:36.245Z,75.10
2019-02-11T20:33:04.513Z,75.30
2019-02-11T20:35:30.849Z,75.20
2019-02-11T20:37:58.870Z,75.40
2019-02-11T20:40:27.786Z,75.40
2019-02-11T20:42:54.113Z,75.40
2019-02-11T20:45:29.878Z,75.30
2019-02-11T20:47:56.280Z,75.30
2019-02-11T20:50:22.442Z,75.20
2019-02-11T20:52:48.741Z,75.40
2019-02-11T20:55:15.403Z,75.30
2019-02-11T20:57:43.635Z,75.10
2019-02-11T21:00:17.489Z,74.90
2019-02-11T21:02:43.755Z,74.80
2019-02-11T21:05:10.684Z,74.80
2019-02-11T21:07:37.010Z,74.70
2019-02-11T21:10:08.760Z,74.60
2019-02-11T21:12:35.439Z,74.50
2019-02-11T21:15:01.757Z,74.70
2019-02-11T21:17:28.023Z,74.70
2019-02-11T21:19:54.590Z,74.80
2019-02-11T21:22:21.079Z,74.80
2019-02-11T21:24:47.341Z,74.90
2019-02-11T21:27:13.575Z,74.80
2019-02-11T21:29:39.813Z,74.90
2019-02-11T21:32:12.495Z,74.80
2019-02-11T21:34:38.727Z,74.80
2019-02-11T21:37:05.273Z,74.90
2019-02-11T21:39:32.223Z,74.80
2019-02-11T21:41:58.406Z,75.00
2019-02-11T21:44:24.632Z,74.90
2019-02-11T21:46:50.788Z,74.90
2019-02-11T21:49:17.011Z,75.00
2019-02-11T21:51:43.193Z,75.00
2019-02-11T21:54:09.442Z,75.10
2019-02-11T21:56:36.042Z,75.20
2019-02-11T21:59:02.313Z,75.20
2019-02-11T22:01:29.081Z,75.20
2019-02-11T22:03:55.280Z,75.30
2019-02-11T22:06:21.456Z,75.40
2019-02-11T22:08:47.686Z,75.30
2019-02-11T22:11:13.870Z,75.40
2019-02-11T22:13:46.244Z,75.40
2019-02-11T22:16:13.116Z,75.40
2019-02-11T22:18:39.629Z,75.40
2019-02-11T22:21:06.574Z,76.20
2019-02-11T22:23:32.788Z,75.60
2019-02-11T22:26:05.148Z,75.60
2019-02-11T22:28:31.664Z,75.60
2019-02-11T22:30:58.225Z,75.70
2019-02-11T22:33:24.401Z,75.80
2019-02-11T22:35:53.372Z,75.80
2019-02-11T22:38:19.898Z,75.80
2019-02-11T22:40:46.412Z,75.70
2019-02-11T22:43:12.617Z,75.80
2019-02-11T22:45:39.103Z,75.80
2019-02-11T22:48:05.647Z,75.80
2019-02-11T22:50:31.841Z,75.90
2019-02-11T22:52:58.013Z,76.00
2019-02-11T22:55:24.256Z,76.00
2019-02-11T22:57:50.458Z,76.20
2019-02-11T23:00:26.514Z,76.30
2019-02-11T23:02:52.781Z,76.30
2019-02-11T23:05:18.978Z,76.20
2019-02-11T23:07:45.173Z,76.20
2019-02-11T23:10:11.774Z,76.20
2019-02-11T23:12:37.982Z,76.10
2019-02-11T23:15:07.267Z,76.90
2019-02-11T23:17:33.485Z,76.00
2019-02-11T23:20:00.849Z,76.20
2019-02-11T23:22:32.732Z,76.30
2019-02-11T23:24:58.996Z,76.30
2019-02-11T23:27:25.167Z,76.50
2019-02-11T23:29:51.403Z,76.60
2019-02-11T23:32:17.574Z,76.80
2019-02-11T23:34:43.936Z,76.80
2019-02-11T23:37:10.121Z,76.70
2019-02-11T23:39:36.304Z,76.70
2019-02-11T23:42:02.565Z,76.70
2019-02-11T23:44:28.737Z,76.50
2019-02-11T23:46:54.896Z,76.50
2019-02-11T23:49:21.070Z,76.30
2019-02-11T23:51:47.260Z,76.30
2019-02-11T23:54:13.493Z,76.20
2019-02-11T23:56:39.677Z,76.30
2019-02-11T23:59:05.876Z,76.30
